Time;durP1;ratioP1;P1;durP2;ratioP2;P2;SDS_P1;SDS_P2;PMS_P1;PMS_P2;Temp;Humidity;BMP_temperature;BMP_pressure;BME280_temperature;BME280_humidity;BME280_pressure;Samples;Min_cycle;Max_cycle;Signal;HPM_P1;HPM_P2
2021/10/31 00:02:19;;;;;;;94.07;25.20;;;;;;;;;;5041024;28;20544;-96
2021/10/31 00:04:46;;;;;;;95.45;25.08;;;;;;;;;;5038145;28;20211;-96
2021/10/31 00:07:14;;;;;;;95.90;26.27;;;;;;;;;;5023783;28;20206;-96
2021/10/31 00:09:42;;;;;;;103.80;27.38;;;;;;;;;;5021440;28;20196;-96
2021/10/31 00:12:09;;;;;;;106.20;27.77;;;;;;;;;;5041182;28;20185;-96
2021/10/31 00:14:38;;;;;;;97.88;25.17;;;;;;;;;;5040520;28;20193;-96
2021/10/31 00:17:08;;;;;;;91.97;23.27;;;;;;;;;;5037672;28;20201;-95
2021/10/31 00:19:35;;;;;;;95.53;25.50;;;;;;;;;;5037499;28;20222;-96
2021/10/31 00:22:02;;;;;;;95.68;23.90;;;;;;;;;;5041745;28;20478;-96
2021/10/31 00:24:29;;;;;;;95.18;24.08;;;;;;;;;;5037767;28;20204;-95
2021/10/31 00:26:56;;;;;;;98.72;24.83;;;;;;;;;;5041131;28;20225;-96
2021/10/31 00:29:22;;;;;;;93.40;24.47;;;;;;;;;;5037381;28;20274;-96
2021/10/31 00:31:50;;;;;;;92.55;23.52;;;;;;;;;;5037006;28;20456;-96
2021/10/31 00:34:19;;;;;;;97.57;25.20;;;;;;;;;;5042281;28;20254;-96
2021/10/31 00:36:46;;;;;;;95.43;25.05;;;;;;;;;;5041878;28;20203;-95
2021/10/31 00:39:13;;;;;;;98.40;25.20;;;;;;;;;;5022998;28;20186;-95
2021/10/31 00:41:40;;;;;;;104.82;27.00;;;;;;;;;;5038176;28;20223;-95
2021/10/31 00:44:07;;;;;;;91.50;24.03;;;;;;;;;;5036234;28;20196;-95
2021/10/31 00:46:34;;;;;;;97.63;25.63;;;;;;;;;;5035106;28;20444;-95
2021/10/31 00:49:00;;;;;;;98.50;25.27;;;;;;;;;;5033149;28;20199;-95
2021/10/31 00:51:29;;;;;;;101.55;26.02;;;;;;;;;;5032394;28;20219;-95
2021/10/31 00:53:57;;;;;;;99.13;26.95;;;;;;;;;;5035769;28;20307;-95
2021/10/31 00:56:24;;;;;;;93.18;24.73;;;;;;;;;;5038454;28;20265;-94
2021/10/31 00:58:54;;;;;;;94.47;25.40;;;;;;;;;;5036648;28;20246;-96
2021/10/31 01:01:21;;;;;;;98.88;27.23;;;;;;;;;;5033020;28;20485;-95
2021/10/31 01:03:48;;;;;;;93.38;23.45;;;;;;;;;;5034064;28;20196;-95
2021/10/31 01:06:36;;;;;;;105.45;27.45;;;;;;;;;;5016864;28;20200;-95
2021/10/31 01:09:04;;;;;;;100.03;26.70;;;;;;;;;;5036561;28;20203;-94
2021/10/31 01:11:38;;;;;;;105.53;28.23;;;;;;;;;;5034532;28;20252;-95
2021/10/31 01:14:21;;;;;;;99.33;26.30;;;;;;;;;;5033275;28;20206;-95
2021/10/31 01:16:52;;;;;;;104.15;27.98;;;;;;;;;;5032020;28;20467;-96
2021/10/31 01:19:34;;;;;;;101.28;25.73;;;;;;;;;;5034014;28;20216;-96
2021/10/31 01:22:05;;;;;;;98.87;25.13;;;;;;;;;;5029751;28;20233;-95
2021/10/31 01:24:42;;;;;;;101.90;26.17;;;;;;;;;;5034611;28;20446;-96
2021/10/31 01:27:15;;;;;;;102.60;26.45;;;;;;;;;;5034142;28;21013;-94
2021/10/31 01:29:52;;;;;;;97.90;26.80;;;;;;;;;;5032390;28;20231;-94
2021/10/31 01:32:25;;;;;;;105.65;29.95;;;;;;;;;;5032498;28;20202;-94
2021/10/31 01:34:58;;;;;;;101.88;26.80;;;;;;;;;;5035312;28;20196;-95
2021/10/31 01:37:30;;;;;;;92.63;24.33;;;;;;;;;;5037053;28;20213;-94
2021/10/31 01:40:05;;;;;;;95.20;24.00;;;;;;;;;;5037433;28;20249;-94
2021/10/31 01:42:38;;;;;;;100.80;27.00;;;;;;;;;;5038682;28;20252;-95
2021/10/31 01:45:08;;;;;;;100.90;26.25;;;;;;;;;;5039115;28;20249;-94
2021/10/31 01:47:39;;;;;;;100.55;26.10;;;;;;;;;;5033708;28;20225;-95
2021/10/31 01:50:09;;;;;;;107.85;27.17;;;;;;;;;;5031820;28;20612;-94
2021/10/31 01:52:38;;;;;;;96.65;26.08;;;;;;;;;;5037914;28;20211;-95
2021/10/31 01:55:06;;;;;;;99.32;25.88;;;;;;;;;;5031867;28;20214;-95
2021/10/31 01:57:36;;;;;;;101.10;26.75;;;;;;;;;;5034876;28;20206;-95
2021/10/31 02:00:07;;;;;;;102.03;27.02;;;;;;;;;;5039876;28;20179;-95
2021/10/31 02:02:36;;;;;;;100.53;26.48;;;;;;;;;;5043732;28;20210;-95
2021/10/31 02:05:07;;;;;;;99.68;26.52;;;;;;;;;;5035543;28;20235;-96
2021/10/31 02:07:36;;;;;;;100.72;25.88;;;;;;;;;;5031653;28;20208;-95
2021/10/31 02:10:07;;;;;;;99.40;25.75;;;;;;;;;;5040680;28;20200;-95
2021/10/31 02:12:35;;;;;;;90.25;23.48;;;;;;;;;;5037332;28;20212;-95
2021/10/31 02:15:02;;;;;;;94.82;24.33;;;;;;;;;;5036469;28;20202;-95
2021/10/31 02:17:29;;;;;;;101.22;26.83;;;;;;;;;;5038668;28;20206;-95
2021/10/31 02:19:57;;;;;;;96.90;24.38;;;;;;;;;;5038359;28;20196;-95
2021/10/31 02:22:25;;;;;;;96.63;24.67;;;;;;;;;;5020538;28;20230;-95
2021/10/31 02:24:54;;;;;;;97.18;24.45;;;;;;;;;;5037457;28;20510;-95
2021/10/31 02:27:22;;;;;;;96.20;25.05;;;;;;;;;;5003654;28;20198;-95
2021/10/31 02:29:51;;;;;;;100.68;26.58;;;;;;;;;;5019896;28;20225;-95
2021/10/31 02:32:18;;;;;;;104.50;27.23;;;;;;;;;;5021570;28;20195;-95
2021/10/31 02:34:44;;;;;;;103.20;27.20;;;;;;;;;;5025737;28;20308;-95
2021/10/31 02:37:14;;;;;;;101.85;27.08;;;;;;;;;;5024635;28;20194;-96
2021/10/31 02:39:41;;;;;;;113.68;29.63;;;;;;;;;;5017400;28;20216;-95
2021/10/31 02:42:13;;;;;;;106.93;27.98;;;;;;;;;;5023938;28;20266;-96
2021/10/31 02:44:42;;;;;;;108.82;28.05;;;;;;;;;;5024284;28;20907;-96
2021/10/31 02:47:13;;;;;;;104.88;27.42;;;;;;;;;;5021858;28;20221;-96
2021/10/31 02:49:40;;;;;;;103.75;27.25;;;;;;;;;;5024860;28;20742;-95
2021/10/31 02:52:15;;;;;;;105.85;28.48;;;;;;;;;;5012810;28;20214;-95
2021/10/31 02:54:45;;;;;;;111.10;30.40;;;;;;;;;;5015043;28;20199;-94
2021/10/31 02:57:15;;;;;;;108.70;28.60;;;;;;;;;;5017795;28;20208;-95
2021/10/31 02:59:44;;;;;;;99.33;26.00;;;;;;;;;;5013552;28;20212;-95
2021/10/31 03:02:13;;;;;;;102.63;27.75;;;;;;;;;;5012738;28;20838;-96
2021/10/31 03:04:40;;;;;;;104.13;28.50;;;;;;;;;;5013897;28;20263;-95
2021/10/31 03:07:07;;;;;;;112.97;28.92;;;;;;;;;;5013974;28;20196;-96
2021/10/31 03:09:34;;;;;;;95.82;24.42;;;;;;;;;;5010833;28;20205;-95
2021/10/31 03:12:02;;;;;;;99.63;26.08;;;;;;;;;;5012122;28;20191;-96
2021/10/31 03:14:30;;;;;;;107.30;28.05;;;;;;;;;;5013736;28;20218;-96
2021/10/31 03:16:57;;;;;;;105.70;28.80;;;;;;;;;;5013771;28;20200;-96
2021/10/31 03:19:23;;;;;;;106.63;28.85;;;;;;;;;;5014021;28;20196;-96
2021/10/31 03:21:51;;;;;;;110.15;29.88;;;;;;;;;;5013340;28;20230;-96
2021/10/31 03:24:17;;;;;;;100.50;26.17;;;;;;;;;;5014776;28;20294;-95
2021/10/31 03:26:44;;;;;;;101.75;25.60;;;;;;;;;;5028267;28;20253;-96
2021/10/31 03:29:11;;;;;;;96.10;25.67;;;;;;;;;;5033330;28;20207;-96
2021/10/31 03:31:40;;;;;;;101.43;24.77;;;;;;;;;;5039541;28;20205;-96
2021/10/31 03:34:12;;;;;;;100.80;25.63;;;;;;;;;;5039720;28;20195;-96
2021/10/31 03:36:40;;;;;;;97.07;25.40;;;;;;;;;;5025912;28;20209;-96
2021/10/31 03:39:08;;;;;;;100.47;26.80;;;;;;;;;;5039429;28;20278;-95
2021/10/31 03:41:34;;;;;;;107.43;26.55;;;;;;;;;;5036710;28;20238;-96
2021/10/31 03:44:02;;;;;;;104.97;25.33;;;;;;;;;;5035607;28;20206;-96
2021/10/31 03:46:28;;;;;;;96.80;24.45;;;;;;;;;;5031887;28;20298;-94
2021/10/31 03:48:56;;;;;;;93.97;24.15;;;;;;;;;;5030638;28;20211;-96
2021/10/31 03:51:23;;;;;;;105.57;23.88;;;;;;;;;;5029474;28;20198;-95
2021/10/31 03:53:53;;;;;;;88.37;21.53;;;;;;;;;;5036743;28;20193;-96
2021/10/31 03:56:29;;;;;;;95.13;22.52;;;;;;;;;;5040408;28;20469;-96
2021/10/31 03:59:00;;;;;;;96.05;22.40;;;;;;;;;;5041640;28;20195;-96
2021/10/31 04:01:35;;;;;;;95.72;22.52;;;;;;;;;;5039730;28;20206;-96
2021/10/31 04:04:06;;;;;;;92.28;23.27;;;;;;;;;;5026147;28;20286;-96
2021/10/31 04:06:32;;;;;;;91.38;23.13;;;;;;;;;;5035059;28;20199;-96
2021/10/31 04:08:59;;;;;;;96.97;25.40;;;;;;;;;;5033398;28;20225;-96
2021/10/31 04:11:29;;;;;;;101.05;23.63;;;;;;;;;;5036737;28;20225;-96
2021/10/31 04:13:59;;;;;;;98.60;24.17;;;;;;;;;;5036445;28;20221;-96
2021/10/31 04:16:31;;;;;;;97.78;24.40;;;;;;;;;;5042725;28;20224;-96
2021/10/31 04:18:57;;;;;;;108.68;28.58;;;;;;;;;;5037723;28;20265;-96
2021/10/31 04:21:27;;;;;;;93.63;22.60;;;;;;;;;;5032733;28;20194;-96
2021/10/31 04:23:54;;;;;;;100.47;24.30;;;;;;;;;;5036198;28;20206;-96
2021/10/31 04:26:20;;;;;;;95.43;23.70;;;;;;;;;;5034510;28;20233;-96
2021/10/31 04:28:47;;;;;;;102.10;25.23;;;;;;;;;;5021792;28;20226;-96
2021/10/31 04:31:15;;;;;;;99.78;24.02;;;;;;;;;;5037249;28;20205;-96
2021/10/31 04:33:41;;;;;;;92.30;22.95;;;;;;;;;;5044831;28;20202;-96
2021/10/31 04:36:09;;;;;;;113.20;27.58;;;;;;;;;;5044963;28;20268;-96
2021/10/31 04:38:37;;;;;;;107.20;27.48;;;;;;;;;;5041642;28;20213;-96
2021/10/31 04:41:04;;;;;;;106.20;28.30;;;;;;;;;;5036387;28;20216;-95
2021/10/31 04:43:31;;;;;;;105.90;28.60;;;;;;;;;;5032728;28;20314;-95
2021/10/31 04:45:58;;;;;;;103.18;26.80;;;;;;;;;;5013435;28;20194;-96
2021/10/31 04:48:25;;;;;;;112.03;29.17;;;;;;;;;;5030757;28;20213;-95
2021/10/31 04:50:52;;;;;;;103.65;27.55;;;;;;;;;;5031069;28;20812;-96
2021/10/31 04:53:18;;;;;;;101.60;26.42;;;;;;;;;;5031155;28;20238;-96
2021/10/31 04:55:47;;;;;;;102.00;25.98;;;;;;;;;;5031982;28;20214;-96
2021/10/31 04:58:14;;;;;;;112.22;30.45;;;;;;;;;;5030433;28;20197;-96
2021/10/31 05:00:44;;;;;;;106.93;30.92;;;;;;;;;;5032885;28;20197;-95
2021/10/31 05:03:11;;;;;;;112.70;32.20;;;;;;;;;;5035333;28;20221;-95
2021/10/31 05:05:38;;;;;;;109.22;30.90;;;;;;;;;;5017284;28;20904;-94
2021/10/31 05:08:05;;;;;;;109.88;29.80;;;;;;;;;;5036739;28;20205;-96
2021/10/31 05:10:32;;;;;;;102.90;27.63;;;;;;;;;;5033800;28;21511;-96
2021/10/31 05:13:02;;;;;;;106.07;28.92;;;;;;;;;;5030480;28;20209;-95
2021/10/31 05:15:29;;;;;;;105.60;29.65;;;;;;;;;;5028752;28;20202;-95
2021/10/31 05:17:56;;;;;;;106.18;29.40;;;;;;;;;;5030267;28;20202;-96
2021/10/31 05:20:22;;;;;;;118.22;33.10;;;;;;;;;;5029539;28;20201;-95
2021/10/31 05:22:49;;;;;;;112.45;30.77;;;;;;;;;;5030020;28;20222;-95
2021/10/31 05:25:16;;;;;;;124.53;34.63;;;;;;;;;;5029708;28;20319;-94
2021/10/31 05:27:42;;;;;;;119.90;33.15;;;;;;;;;;5030971;28;20225;-96
2021/10/31 05:30:12;;;;;;;121.30;33.22;;;;;;;;;;5032264;28;20211;-96
2021/10/31 05:32:40;;;;;;;164.82;38.70;;;;;;;;;;5035553;28;20204;-96
2021/10/31 05:35:08;;;;;;;150.38;37.20;;;;;;;;;;5032493;28;20206;-96
2021/10/31 05:37:37;;;;;;;138.48;34.88;;;;;;;;;;5030860;28;20201;-95
2021/10/31 05:40:05;;;;;;;147.75;36.60;;;;;;;;;;5032208;28;20222;-96
2021/10/31 05:42:36;;;;;;;149.48;37.53;;;;;;;;;;5016658;28;20232;-96
2021/10/31 05:45:03;;;;;;;202.35;39.22;;;;;;;;;;5037071;28;20286;-96
2021/10/31 05:47:31;;;;;;;203.57;41.75;;;;;;;;;;5031333;28;20195;-96
2021/10/31 05:49:58;;;;;;;227.88;39.78;;;;;;;;;;5032107;28;20776;-96
2021/10/31 05:52:25;;;;;;;170.68;37.30;;;;;;;;;;5030020;28;20211;-96
2021/10/31 05:54:51;;;;;;;188.75;38.42;;;;;;;;;;5031986;28;20207;-95
2021/10/31 05:57:18;;;;;;;202.45;38.35;;;;;;;;;;5032213;28;20213;-95
2021/10/31 05:59:44;;;;;;;231.82;38.55;;;;;;;;;;5030294;28;20672;-96
2021/10/31 06:02:11;;;;;;;243.13;36.80;;;;;;;;;;5032124;28;20230;-96
2021/10/31 06:04:42;;;;;;;180.93;36.58;;;;;;;;;;5029806;28;20195;-96
2021/10/31 06:07:08;;;;;;;153.40;35.00;;;;;;;;;;5030511;28;20202;-95
2021/10/31 06:09:36;;;;;;;150.40;35.00;;;;;;;;;;5031397;28;20259;-96
2021/10/31 06:12:04;;;;;;;156.60;34.65;;;;;;;;;;5033433;28;20450;-96
2021/10/31 06:14:32;;;;;;;137.27;31.00;;;;;;;;;;5040436;28;20199;-96
2021/10/31 06:16:59;;;;;;;150.52;32.25;;;;;;;;;;5040404;28;20202;-96
2021/10/31 06:19:29;;;;;;;192.88;37.35;;;;;;;;;;5041883;28;20205;-96
2021/10/31 06:22:17;;;;;;;155.98;36.17;;;;;;;;;;5045431;28;20180;-96
2021/10/31 06:27:53;;;;;;;160.90;35.03;;;;;;;;;;5028346;28;20440;-96
2021/10/31 06:30:21;;;;;;;184.47;36.53;;;;;;;;;;5025209;28;20200;-96
2021/10/31 06:32:49;;;;;;;164.03;35.67;;;;;;;;;;5009401;28;20811;-96
2021/10/31 06:35:17;;;;;;;145.38;34.38;;;;;;;;;;5023036;28;20459;-96
2021/10/31 06:37:49;;;;;;;151.65;35.03;;;;;;;;;;5015545;28;20205;-96
2021/10/31 06:40:16;;;;;;;142.10;33.43;;;;;;;;;;5013125;28;20209;-96
2021/10/31 06:42:44;;;;;;;125.20;35.20;;;;;;;;;;5011075;28;20483;-96
2021/10/31 06:45:11;;;;;;;122.43;33.83;;;;;;;;;;5019409;28;21315;-96
2021/10/31 06:47:39;;;;;;;127.13;34.77;;;;;;;;;;5012229;28;20512;-96
2021/10/31 06:50:06;;;;;;;126.40;35.10;;;;;;;;;;5013699;28;20448;-96
2021/10/31 06:52:32;;;;;;;124.63;37.50;;;;;;;;;;5018774;28;20455;-96
2021/10/31 06:58:01;;;;;;;138.53;39.30;;;;;;;;;;5023063;28;20487;-95
2021/10/31 07:00:28;;;;;;;129.30;36.90;;;;;;;;;;5019115;28;20488;-96
2021/10/31 07:03:11;;;;;;;129.87;37.00;;;;;;;;;;5011532;28;20496;-96
2021/10/31 07:08:45;;;;;;;141.07;41.23;;;;;;;;;;5015807;28;20443;-96
2021/10/31 07:11:23;;;;;;;137.53;39.43;;;;;;;;;;5010491;28;20428;-96
2021/10/31 07:13:52;;;;;;;130.40;38.63;;;;;;;;;;5004694;28;20476;-96
2021/10/31 07:16:19;;;;;;;132.03;37.40;;;;;;;;;;5018369;28;20448;-96
2021/10/31 07:18:46;;;;;;;121.40;36.40;;;;;;;;;;4999094;28;20447;-96
2021/10/31 07:21:15;;;;;;;135.20;39.20;;;;;;;;;;5016236;28;20440;-96
2021/10/31 07:23:43;;;;;;;135.60;40.37;;;;;;;;;;5021512;28;20488;-96
2021/10/31 07:26:12;;;;;;;130.50;38.20;;;;;;;;;;5025791;28;20503;-95
2021/10/31 07:28:39;;;;;;;132.77;37.47;;;;;;;;;;5034711;28;20470;-95
2021/10/31 07:31:14;;;;;;;129.47;38.73;;;;;;;;;;5041048;28;20530;-96
2021/10/31 07:33:49;;;;;;;132.40;39.70;;;;;;;;;;5042368;28;20442;-96
2021/10/31 07:36:16;;;;;;;125.57;38.97;;;;;;;;;;5038335;28;20515;-96
2021/10/31 07:38:43;;;;;;;126.23;37.70;;;;;;;;;;5037625;28;20495;-96
2021/10/31 07:41:13;;;;;;;127.67;39.70;;;;;;;;;;5034651;28;20441;-96
2021/10/31 07:43:40;;;;;;;137.00;40.10;;;;;;;;;;5040010;28;20495;-96
2021/10/31 07:46:09;;;;;;;133.63;40.00;;;;;;;;;;5040750;28;20440;-96
2021/10/31 07:48:37;;;;;;;136.63;42.87;;;;;;;;;;5037206;28;20419;-96
2021/10/31 07:51:09;;;;;;;138.03;41.47;;;;;;;;;;5041465;28;20499;-96
2021/10/31 07:53:41;;;;;;;140.07;42.57;;;;;;;;;;5037735;28;20452;-96
2021/10/31 08:02:29;;;;;;;146.97;44.30;;;;;;;;;;5036269;28;20456;-96
2021/10/31 08:07:39;;;;;;;143.50;43.90;;;;;;;;;;5104010;23;20494;-96
2021/10/31 08:10:07;;;;;;;139.97;42.20;;;;;;;;;;5042891;28;20485;-96
2021/10/31 08:12:34;;;;;;;136.03;42.93;;;;;;;;;;5046616;28;20455;-96
2021/10/31 08:15:01;;;;;;;161.57;46.37;;;;;;;;;;5067377;23;20498;-96
2021/10/31 08:17:29;;;;;;;149.97;48.17;;;;;;;;;;5038590;28;20439;-96
2021/10/31 08:20:10;;;;;;;146.70;47.83;;;;;;;;;;5039521;28;20451;-96
2021/10/31 08:22:37;;;;;;;158.00;48.33;;;;;;;;;;5048127;23;20479;-96
2021/10/31 08:25:10;;;;;;;150.87;48.07;;;;;;;;;;5036532;28;20431;-96
2021/10/31 08:27:38;;;;;;;153.97;48.40;;;;;;;;;;5052023;23;20476;-96
2021/10/31 08:30:05;;;;;;;147.97;46.80;;;;;;;;;;5024530;28;20428;-96
2021/10/31 08:35:08;;;;;;;205.27;74.10;;;;;;;;;;4887547;26;20482;-96
2021/10/31 08:37:35;;;;;;;157.17;50.37;;;;;;;;;;4975004;28;20450;-96
2021/10/31 08:40:01;;;;;;;142.87;48.30;;;;;;;;;;4978322;28;20446;-96
2021/10/31 08:42:28;;;;;;;134.17;42.97;;;;;;;;;;4974357;28;20454;-95
2021/10/31 08:44:55;;;;;;;140.17;41.07;;;;;;;;;;4972378;28;20543;-96
2021/10/31 08:47:21;;;;;;;135.77;42.67;;;;;;;;;;4970595;28;20467;-96
2021/10/31 08:49:48;;;;;;;135.50;44.13;;;;;;;;;;4973776;28;20462;-96
2021/10/31 08:52:16;;;;;;;126.17;38.00;;;;;;;;;;4969918;28;20451;-96
2021/10/31 08:54:43;;;;;;;118.73;37.30;;;;;;;;;;4979622;28;20489;-96
2021/10/31 08:57:09;;;;;;;117.63;36.00;;;;;;;;;;4972412;28;20446;-96
2021/10/31 08:59:36;;;;;;;101.20;31.27;;;;;;;;;;4976155;28;20451;-96
2021/10/31 09:02:03;;;;;;;103.20;29.20;;;;;;;;;;4972044;28;20481;-96
2021/10/31 09:04:30;;;;;;;103.77;29.70;;;;;;;;;;4975681;28;20496;-96
2021/10/31 09:06:58;;;;;;;107.80;32.57;;;;;;;;;;4979704;28;20527;-96
2021/10/31 09:09:27;;;;;;;107.10;31.83;;;;;;;;;;4974929;28;20451;-94
2021/10/31 09:11:53;;;;;;;104.67;29.93;;;;;;;;;;4976109;28;20442;-96
2021/10/31 09:17:01;;;;;;;116.27;36.20;;;;;;;;;;4975417;28;20449;-96
2021/10/31 09:30:41;;;;;;;112.90;34.63;;;;;;;;;;3542048;23;20473;-96
2021/10/31 09:35:58;;;;;;;105.77;31.20;;;;;;;;;;5036219;28;20455;-96
2021/10/31 09:38:30;;;;;;;99.27;29.60;;;;;;;;;;5038609;28;20419;-96
2021/10/31 09:40:57;;;;;;;102.57;31.00;;;;;;;;;;5032304;28;20460;-96
2021/10/31 09:43:27;;;;;;;97.07;28.43;;;;;;;;;;5031629;28;20484;-96
2021/10/31 09:45:56;;;;;;;133.10;44.87;;;;;;;;;;5039973;28;20511;-95
2021/10/31 09:48:43;;;;;;;131.30;44.20;;;;;;;;;;5114318;23;20488;-96
2021/10/31 09:53:41;;;;;;;114.43;35.27;;;;;;;;;;5042795;23;20476;-96
2021/10/31 09:56:10;;;;;;;104.03;31.97;;;;;;;;;;5050663;28;20959;-96
2021/10/31 10:01:35;;;;;;;105.37;32.33;;;;;;;;;;4141843;23;20584;-96
2021/10/31 10:04:04;;;;;;;97.77;30.10;;;;;;;;;;5039404;28;20513;-94
2021/10/31 10:15:04;;;;;;;107.57;32.57;;;;;;;;;;4992145;28;20429;-96
2021/10/31 10:17:50;;;;;;;102.57;31.07;;;;;;;;;;4982096;23;20496;-95
2021/10/31 10:20:22;;;;;;;99.30;30.43;;;;;;;;;;4986539;28;20533;-95
2021/10/31 10:22:49;;;;;;;98.60;30.70;;;;;;;;;;4963804;28;20461;-96
2021/10/31 10:25:15;;;;;;;105.73;30.80;;;;;;;;;;4979588;28;20491;-94
2021/10/31 10:27:47;;;;;;;98.40;30.57;;;;;;;;;;4975769;28;20465;-96
2021/10/31 10:36:17;;;;;;;93.57;28.00;;;;;;;;;;5191995;23;20501;-96
2021/10/31 10:38:43;;;;;;;139.47;46.40;;;;;;;;;;4976150;28;20529;-96
2021/10/31 10:46:22;;;;;;;96.87;29.33;;;;;;;;;;4977405;28;20509;-96
2021/10/31 10:48:55;;;;;;;107.73;34.47;;;;;;;;;;4962860;28;20418;-96
2021/10/31 10:51:23;;;;;;;96.60;29.33;;;;;;;;;;4972569;28;20481;-95
2021/10/31 10:54:05;;;;;;;93.97;29.67;;;;;;;;;;4974311;28;20500;-96
2021/10/31 10:56:31;;;;;;;98.47;30.57;;;;;;;;;;4969915;28;20442;-93
2021/10/31 10:59:00;;;;;;;96.17;29.90;;;;;;;;;;4972462;28;20454;-96
2021/10/31 11:01:27;;;;;;;96.40;29.57;;;;;;;;;;4980046;28;20437;-96
2021/10/31 11:03:54;;;;;;;103.17;30.57;;;;;;;;;;4973503;28;20508;-96
2021/10/31 11:06:30;;;;;;;93.17;28.70;;;;;;;;;;4977993;28;20430;-96
2021/10/31 11:09:11;;;;;;;95.10;30.03;;;;;;;;;;4979046;28;20459;-96
2021/10/31 11:12:25;;;;;;;95.80;27.97;;;;;;;;;;4956922;28;20461;-96
2021/10/31 11:14:53;;;;;;;97.67;29.80;;;;;;;;;;4972861;28;20458;-94
2021/10/31 11:20:23;;;;;;;89.93;27.27;;;;;;;;;;4974412;28;20478;-96
2021/10/31 11:22:53;;;;;;;89.80;26.37;;;;;;;;;;4980516;28;20454;-96
2021/10/31 11:25:22;;;;;;;93.73;27.13;;;;;;;;;;4990371;28;20557;-96
2021/10/31 11:27:57;;;;;;;85.80;25.77;;;;;;;;;;4978799;28;20462;-96
2021/10/31 11:30:27;;;;;;;89.87;28.27;;;;;;;;;;4980178;28;20438;-96
2021/10/31 11:32:55;;;;;;;87.60;24.70;;;;;;;;;;4976095;28;20451;-95
2021/10/31 11:35:29;;;;;;;82.57;23.77;;;;;;;;;;4986768;23;20484;-96
2021/10/31 11:38:04;;;;;;;86.23;24.43;;;;;;;;;;4977949;28;20435;-96
2021/10/31 11:40:35;;;;;;;83.83;23.77;;;;;;;;;;4974745;28;20443;-96
2021/10/31 11:43:03;;;;;;;85.20;24.17;;;;;;;;;;4975688;28;20458;-95
2021/10/31 11:45:44;;;;;;;88.80;25.47;;;;;;;;;;4973674;28;20488;-96
2021/10/31 11:48:12;;;;;;;106.80;34.23;;;;;;;;;;4972112;28;20456;-96
2021/10/31 11:50:40;;;;;;;85.63;24.40;;;;;;;;;;4965318;28;20536;-96
2021/10/31 11:53:15;;;;;;;82.50;23.63;;;;;;;;;;4987794;23;20519;-96
2021/10/31 11:56:05;;;;;;;86.40;24.93;;;;;;;;;;4975600;28;20458;-95
2021/10/31 11:58:45;;;;;;;85.40;23.83;;;;;;;;;;4978737;28;20445;-96
2021/10/31 12:01:13;;;;;;;98.73;25.77;;;;;;;;;;4976332;28;20470;-96
2021/10/31 12:03:47;;;;;;;84.77;24.40;;;;;;;;;;4981690;28;20461;-96
2021/10/31 12:06:33;;;;;;;83.27;25.23;;;;;;;;;;4986136;28;20508;-95
2021/10/31 12:09:02;;;;;;;86.83;25.97;;;;;;;;;;4981234;28;20628;-96
2021/10/31 12:16:51;;;;;;;84.27;24.23;;;;;;;;;;4977370;28;20493;-96
2021/10/31 12:19:18;;;;;;;85.80;26.30;;;;;;;;;;4983046;28;20465;-95
2021/10/31 12:22:09;;;;;;;84.23;24.93;;;;;;;;;;4978595;28;20530;-96
2021/10/31 12:24:43;;;;;;;87.20;25.20;;;;;;;;;;4975684;28;20481;-96
2021/10/31 12:27:24;;;;;;;81.60;23.90;;;;;;;;;;4976925;28;20429;-96
2021/10/31 12:30:04;;;;;;;81.40;23.97;;;;;;;;;;4974614;28;20439;-96
2021/10/31 12:32:43;;;;;;;83.60;23.47;;;;;;;;;;5013976;23;20541;-96
2021/10/31 12:35:30;;;;;;;86.03;25.80;;;;;;;;;;4989617;28;20436;-96
2021/10/31 12:38:16;;;;;;;79.67;22.03;;;;;;;;;;4973300;28;20478;-96
2021/10/31 12:40:45;;;;;;;83.97;23.87;;;;;;;;;;4963941;28;20426;-96
2021/10/31 12:43:32;;;;;;;79.70;23.37;;;;;;;;;;4979348;28;22016;-96
2021/10/31 12:46:13;;;;;;;84.90;25.07;;;;;;;;;;4953675;28;20497;-95
2021/10/31 12:48:40;;;;;;;82.80;23.77;;;;;;;;;;4972333;28;20450;-96
2021/10/31 12:51:12;;;;;;;80.07;21.60;;;;;;;;;;4978234;28;20454;-96
2021/10/31 12:53:40;;;;;;;86.97;23.03;;;;;;;;;;4956192;28;20497;-96
2021/10/31 12:56:09;;;;;;;82.33;23.40;;;;;;;;;;4973671;28;20469;-96
2021/10/31 12:58:37;;;;;;;79.33;22.70;;;;;;;;;;4973662;28;20457;-95
2021/10/31 13:01:04;;;;;;;81.00;22.47;;;;;;;;;;4971978;28;20462;-96
2021/10/31 13:03:30;;;;;;;86.53;23.40;;;;;;;;;;4972360;28;20466;-96
2021/10/31 13:05:57;;;;;;;80.00;23.10;;;;;;;;;;4969498;28;20491;-96
2021/10/31 13:08:24;;;;;;;82.77;22.43;;;;;;;;;;4970526;28;20449;-96
2021/10/31 13:10:51;;;;;;;83.17;24.30;;;;;;;;;;4972646;28;20453;-96
2021/10/31 13:13:20;;;;;;;82.37;24.97;;;;;;;;;;4974878;28;20438;-95
2021/10/31 13:15:48;;;;;;;82.67;24.70;;;;;;;;;;4975332;28;20552;-96
2021/10/31 13:18:15;;;;;;;82.30;24.70;;;;;;;;;;4971556;28;20823;-96
2021/10/31 13:20:47;;;;;;;82.43;25.13;;;;;;;;;;4970198;28;20450;-96
2021/10/31 13:23:16;;;;;;;78.37;22.53;;;;;;;;;;4971554;28;20574;-95
2021/10/31 13:25:51;;;;;;;79.17;22.40;;;;;;;;;;4974484;28;20493;-96
2021/10/31 13:28:19;;;;;;;82.57;23.87;;;;;;;;;;4954714;28;20475;-95
2021/10/31 13:31:02;;;;;;;82.20;23.90;;;;;;;;;;4957216;28;20463;-96
2021/10/31 13:33:30;;;;;;;79.87;23.57;;;;;;;;;;4973596;28;20549;-96
2021/10/31 13:36:03;;;;;;;81.80;24.10;;;;;;;;;;4971550;28;20447;-96
2021/10/31 13:38:30;;;;;;;79.00;23.80;;;;;;;;;;4973482;28;20460;-96
2021/10/31 13:40:57;;;;;;;81.07;24.40;;;;;;;;;;4970860;28;20452;-95
2021/10/31 13:43:33;;;;;;;83.57;24.77;;;;;;;;;;4970018;28;20455;-96
2021/10/31 13:46:01;;;;;;;81.33;23.80;;;;;;;;;;4970653;28;20501;-96
2021/10/31 13:48:36;;;;;;;85.07;25.03;;;;;;;;;;4970313;28;20464;-95
2021/10/31 13:51:05;;;;;;;86.50;26.87;;;;;;;;;;4970347;28;20473;-96
2021/10/31 13:53:33;;;;;;;87.60;25.70;;;;;;;;;;4970426;28;20456;-96
2021/10/31 13:56:00;;;;;;;84.17;25.50;;;;;;;;;;4956541;28;20432;-96
2021/10/31 13:58:27;;;;;;;79.77;23.70;;;;;;;;;;4970308;28;20455;-95
2021/10/31 14:00:55;;;;;;;83.67;23.70;;;;;;;;;;4971746;28;21044;-96
2021/10/31 14:03:27;;;;;;;86.07;24.60;;;;;;;;;;4971248;28;20463;-96
2021/10/31 14:05:55;;;;;;;82.13;23.67;;;;;;;;;;4978565;28;20540;-96
2021/10/31 14:08:28;;;;;;;81.80;24.57;;;;;;;;;;4962403;28;20467;-96
2021/10/31 14:10:56;;;;;;;82.73;23.87;;;;;;;;;;4971322;28;20878;-96
2021/10/31 14:13:22;;;;;;;83.70;24.57;;;;;;;;;;4970769;28;20441;-95
2021/10/31 14:15:51;;;;;;;81.80;24.00;;;;;;;;;;4973014;28;20446;-96
2021/10/31 14:18:18;;;;;;;81.67;23.50;;;;;;;;;;4970462;28;20450;-96
2021/10/31 14:20:49;;;;;;;86.00;25.40;;;;;;;;;;4969696;28;20580;-96
2021/10/31 14:23:22;;;;;;;85.97;24.50;;;;;;;;;;4972923;28;20453;-94
2021/10/31 14:25:49;;;;;;;80.60;24.03;;;;;;;;;;4972881;28;20545;-96
2021/10/31 14:28:17;;;;;;;83.37;24.70;;;;;;;;;;4973112;28;20460;-96
2021/10/31 14:30:53;;;;;;;86.57;25.30;;;;;;;;;;4975745;28;20454;-96
2021/10/31 14:33:21;;;;;;;87.57;25.90;;;;;;;;;;4972725;28;20455;-96
2021/10/31 14:35:50;;;;;;;82.30;25.10;;;;;;;;;;4987762;28;20457;-96
2021/10/31 14:38:22;;;;;;;83.17;25.47;;;;;;;;;;4985767;28;20961;-96
2021/10/31 14:41:00;;;;;;;82.67;24.70;;;;;;;;;;4970313;28;20439;-96
2021/10/31 14:46:21;;;;;;;85.10;24.60;;;;;;;;;;4969016;28;20563;-96
2021/10/31 14:48:49;;;;;;;81.90;24.13;;;;;;;;;;4966413;28;20439;-96
2021/10/31 14:51:26;;;;;;;88.10;26.83;;;;;;;;;;4965519;28;20447;-96
2021/10/31 15:09:32;;;;;;;98.43;32.10;;;;;;;;;;5294131;23;20482;-96
2021/10/31 15:18:27;;;;;;;90.50;25.87;;;;;;;;;;5073852;23;20486;-96
2021/10/31 15:55:04;;;;;;;97.80;27.73;;;;;;;;;;4920806;29;20494;-96
2021/10/31 16:35:24;;;;;;;92.67;25.97;;;;;;;;;;5576218;23;20484;-96
2021/10/31 16:38:02;;;;;;;86.67;24.30;;;;;;;;;;4942992;28;20522;-95
2021/10/31 16:40:33;;;;;;;89.63;24.87;;;;;;;;;;4965121;28;20458;-96
2021/10/31 16:48:09;;;;;;;103.47;26.70;;;;;;;;;;4958975;29;20223;-96
2021/10/31 16:50:36;;;;;;;97.07;28.30;;;;;;;;;;4956636;28;20441;-95
2021/10/31 16:53:09;;;;;;;96.83;28.60;;;;;;;;;;4956062;28;20447;-96
2021/10/31 17:21:22;;;;;;;101.70;29.90;;;;;;;;;;4921474;29;20512;-96
2021/10/31 17:24:16;;;;;;;93.47;26.80;;;;;;;;;;4928329;29;20436;-96
2021/10/31 17:29:29;;;;;;;101.67;30.50;;;;;;;;;;4967413;29;20441;-96
2021/10/31 17:31:56;;;;;;;102.70;30.90;;;;;;;;;;4956617;29;20505;-96
2021/10/31 17:34:22;;;;;;;97.03;25.77;;;;;;;;;;4955853;29;20457;-96
2021/10/31 17:36:53;;;;;;;97.90;28.90;;;;;;;;;;4954133;29;20455;-96
2021/10/31 17:39:28;;;;;;;100.30;31.77;;;;;;;;;;4962966;29;20447;-96
2021/10/31 17:47:51;;;;;;;98.87;30.73;;;;;;;;;;5114805;23;20482;-96
2021/10/31 17:50:20;;;;;;;102.33;30.53;;;;;;;;;;4941496;29;20442;-96
2021/10/31 17:52:53;;;;;;;101.20;31.00;;;;;;;;;;4958920;29;20462;-96
2021/10/31 17:55:27;;;;;;;105.37;31.67;;;;;;;;;;4961350;28;20526;-96